Time;durP1;ratioP1;P1;durP2;ratioP2;P2;SDS_P1;SDS_P2;PMS_P1;PMS_P2;Temp;Humidity;BMP_temperature;BMP_pressure;BME280_temperature;BME280_humidity;BME280_pressure;Samples;Min_cycle;Max_cycle;Signal;HPM_P1;HPM_P2
2023/08/10 00:00:23;;;;;;;32.33;5.93;;;26.90;53.60;;;;;;5046209;28;20292;-82
2023/08/10 00:02:52;;;;;;;39.90;6.63;;;26.90;53.60;;;;;;5030724;28;20197;-79
2023/08/10 00:05:19;;;;;;;30.27;5.60;;;26.90;53.60;;;;;;5046589;28;20204;-78
2023/08/10 00:07:46;;;;;;;43.50;6.70;;;26.90;53.60;;;;;;5046821;28;20196;-78
2023/08/10 00:10:13;;;;;;;32.20;6.00;;;26.90;53.60;;;;;;5046516;28;20267;-78
2023/08/10 00:12:40;;;;;;;25.47;5.17;;;26.90;53.60;;;;;;5047179;28;20288;-77
2023/08/10 00:15:08;;;;;;;34.67;6.33;;;26.90;53.60;;;;;;5047500;28;20235;-79
2023/08/10 00:17:35;;;;;;;28.70;5.63;;;26.80;53.50;;;;;;5047050;28;20282;-75
2023/08/10 00:20:07;;;;;;;32.57;6.10;;;26.90;53.60;;;;;;5046776;28;20309;-77
2023/08/10 00:22:34;;;;;;;32.43;5.90;;;26.90;53.60;;;;;;5046709;28;20204;-78
2023/08/10 00:25:02;;;;;;;30.97;5.97;;;26.80;53.60;;;;;;5046208;28;20292;-78
2023/08/10 00:27:29;;;;;;;25.60;5.17;;;26.80;53.60;;;;;;5048097;28;20188;-77
2023/08/10 00:29:56;;;;;;;29.70;5.63;;;26.80;53.60;;;;;;5048127;28;20215;-78
2023/08/10 00:32:23;;;;;;;35.73;6.07;;;26.80;53.60;;;;;;5047599;28;20204;-78
2023/08/10 00:34:50;;;;;;;25.67;5.03;;;26.80;53.70;;;;;;5041757;28;20200;-77
2023/08/10 00:37:19;;;;;;;42.27;6.90;;;26.80;53.60;;;;;;5046463;28;20306;-78
2023/08/10 00:39:46;;;;;;;27.50;5.20;;;26.80;53.60;;;;;;5046624;28;20288;-77
2023/08/10 00:42:13;;;;;;;34.83;6.37;;;26.80;53.60;;;;;;5047637;28;20688;-77
2023/08/10 00:44:40;;;;;;;28.37;5.60;;;26.80;53.70;;;;;;5046488;28;20295;-77
2023/08/10 00:47:07;;;;;;;26.23;5.40;;;26.80;53.60;;;;;;5046173;28;20292;-78
2023/08/10 00:49:35;;;;;;;28.13;5.47;;;26.80;53.70;;;;;;5047666;28;20315;-77
2023/08/10 00:52:02;;;;;;;23.27;5.00;;;26.80;53.70;;;;;;5046739;28;20196;-77
2023/08/10 00:54:31;;;;;;;32.43;5.83;;;26.80;53.70;;;;;;5046844;28;20208;-77
2023/08/10 00:56:58;;;;;;;27.10;5.50;;;26.80;53.70;;;;;;5045988;28;20204;-77
2023/08/10 00:59:28;;;;;;;33.63;5.77;;;26.80;53.70;;;;;;5047751;28;20239;-77
2023/08/10 01:01:55;;;;;;;30.17;5.90;;;26.80;53.60;;;;;;5047321;28;20298;-78
2023/08/10 01:04:22;;;;;;;31.50;5.93;;;26.80;53.70;;;;;;5045796;28;20196;-78
2023/08/10 01:06:54;;;;;;;32.87;5.93;;;26.80;53.60;;;;;;5046310;28;20686;-78
2023/08/10 01:09:28;;;;;;;41.23;6.70;;;26.70;53.60;;;;;;5046271;28;20216;-79
2023/08/10 01:12:03;;;;;;;52.07;7.33;;;26.70;53.60;;;;;;5045130;28;20211;-78
2023/08/10 01:14:36;;;;;;;25.77;5.10;;;26.70;53.60;;;;;;5047072;28;20207;-80
2023/08/10 01:17:08;;;;;;;28.77;5.60;;;26.70;53.60;;;;;;5047530;28;20208;-79
2023/08/10 01:19:39;;;;;;;32.10;5.77;;;26.70;53.60;;;;;;5045800;28;20290;-78
2023/08/10 01:22:18;;;;;;;24.30;5.27;;;26.70;53.60;;;;;;5045988;28;20311;-78
2023/08/10 01:24:47;;;;;;;34.07;6.20;;;26.70;53.60;;;;;;5047137;28;20239;-79
2023/08/10 01:27:16;;;;;;;48.73;7.43;;;26.70;53.60;;;;;;5045762;28;20214;-80
2023/08/10 01:29:44;;;;;;;30.57;6.03;;;26.70;53.60;;;;;;5044817;28;20322;-77
2023/08/10 01:32:16;;;;;;;27.90;5.40;;;26.70;53.60;;;;;;5045913;28;20265;-76
2023/08/10 01:34:44;;;;;;;25.30;5.10;;;26.70;53.60;;;;;;5047028;28;20935;-78
2023/08/10 01:37:11;;;;;;;33.97;6.43;;;26.60;53.50;;;;;;5046982;28;20219;-79
2023/08/10 01:39:38;;;;;;;37.00;6.27;;;26.60;53.50;;;;;;5045988;28;20200;-83
2023/08/10 01:42:05;;;;;;;24.43;5.40;;;26.60;53.50;;;;;;5046402;28;20206;-77
2023/08/10 01:44:33;;;;;;;34.37;5.80;;;26.60;53.60;;;;;;5046198;28;20239;-77
2023/08/10 01:47:04;;;;;;;25.43;4.97;;;26.60;53.60;;;;;;5045967;28;20315;-78
2023/08/10 01:49:34;;;;;;;50.50;7.27;;;26.60;53.60;;;;;;5045479;28;20235;-77
2023/08/10 01:52:05;;;;;;;29.50;5.50;;;26.60;53.60;;;;;;5046231;28;20287;-76
2023/08/10 01:54:33;;;;;;;31.33;5.67;;;26.60;53.60;;;;;;5047054;28;20199;-79
2023/08/10 01:57:00;;;;;;;24.37;5.43;;;26.60;53.60;;;;;;5050606;28;21245;-78
2023/08/10 01:59:27;;;;;;;47.77;7.27;;;26.60;53.60;;;;;;5045141;28;20204;-77
2023/08/10 02:01:56;;;;;;;42.53;6.97;;;26.60;53.60;;;;;;5048852;28;20204;-77
2023/08/10 02:04:23;;;;;;;26.80;5.43;;;26.60;53.60;;;;;;5050334;28;20415;-78
2023/08/10 02:06:50;;;;;;;25.07;5.27;;;26.60;53.60;;;;;;5050577;28;20200;-76
2023/08/10 02:09:17;;;;;;;29.87;5.50;;;26.60;53.60;;;;;;5049015;28;20329;-81
2023/08/10 02:11:44;;;;;;;31.97;5.97;;;26.50;53.60;;;;;;5049746;28;20329;-78
2023/08/10 02:14:11;;;;;;;28.83;6.00;;;26.50;53.60;;;;;;5049124;28;20231;-77
2023/08/10 02:16:38;;;;;;;37.30;6.27;;;26.50;53.60;;;;;;5050256;28;20192;-78
2023/08/10 02:19:07;;;;;;;38.60;6.37;;;26.50;53.60;;;;;;5045105;28;20340;-78
2023/08/10 02:21:33;;;;;;;29.13;5.80;;;26.50;53.60;;;;;;5046512;28;20259;-80
2023/08/10 02:24:01;;;;;;;29.00;5.63;;;26.50;53.60;;;;;;5047340;28;20242;-79
2023/08/10 02:26:27;;;;;;;26.17;5.07;;;26.50;53.70;;;;;;5049983;28;20649;-78
2023/08/10 02:28:54;;;;;;;24.63;5.20;;;26.50;53.70;;;;;;5047870;28;20291;-77
2023/08/10 02:31:22;;;;;;;31.90;5.87;;;26.50;53.70;;;;;;5049268;28;20319;-78
2023/08/10 02:33:49;;;;;;;29.27;5.60;;;26.50;53.70;;;;;;5050079;28;20229;-81
2023/08/10 02:36:17;;;;;;;24.43;5.13;;;26.50;53.70;;;;;;5050494;28;20585;-77
2023/08/10 02:38:44;;;;;;;32.10;5.67;;;26.50;54.30;;;;;;5048764;28;20967;-81
2023/08/10 02:41:11;;;;;;;31.70;5.90;;;26.50;53.70;;;;;;5048939;28;20207;-80
2023/08/10 02:43:38;;;;;;;35.80;6.13;;;26.50;53.70;;;;;;5047305;28;20208;-79
2023/08/10 02:46:05;;;;;;;23.73;5.53;;;26.40;53.60;;;;;;5047185;28;20291;-77
2023/08/10 02:48:32;;;;;;;32.10;6.13;;;26.40;53.70;;;;;;5048172;28;20275;-77
2023/08/10 02:50:59;;;;;;;28.97;5.77;;;26.40;53.60;;;;;;5049580;28;20224;-77
2023/08/10 02:53:27;;;;;;;29.13;5.80;;;26.40;53.70;;;;;;5049756;28;20652;-77
2023/08/10 02:55:54;;;;;;;27.40;5.77;;;26.40;53.70;;;;;;5048488;28;20236;-78
2023/08/10 02:58:22;;;;;;;45.60;7.30;;;26.40;54.30;;;;;;5046374;28;20290;-77
2023/08/10 03:00:49;;;;;;;27.73;5.47;;;26.40;53.60;;;;;;5049340;28;20220;-77
2023/08/10 03:03:17;;;;;;;30.93;5.90;;;26.40;53.70;;;;;;5048324;28;20204;-78
2023/08/10 03:05:44;;;;;;;29.20;5.37;;;26.40;53.70;;;;;;5048811;28;20234;-77
2023/08/10 03:08:11;;;;;;;35.07;5.97;;;26.40;53.70;;;;;;5048554;28;20207;-77
2023/08/10 03:10:39;;;;;;;30.10;5.50;;;26.40;53.70;;;;;;5046009;28;20315;-77
2023/08/10 03:13:07;;;;;;;31.63;5.57;;;26.40;53.70;;;;;;5049671;28;20204;-77
2023/08/10 03:15:34;;;;;;;63.97;8.67;;;26.40;53.80;;;;;;5046828;28;20254;-77
2023/08/10 03:18:00;;;;;;;29.10;5.47;;;26.30;53.70;;;;;;5036598;28;20207;-77
2023/08/10 03:20:28;;;;;;;28.67;5.43;;;26.30;53.70;;;;;;5047198;28;20683;-79
2023/08/10 03:22:55;;;;;;;23.20;5.00;;;26.30;53.70;;;;;;5047359;28;20718;-78
2023/08/10 03:25:20;;;;;;;50.70;7.23;;;26.30;53.70;;;;;;5048163;28;20211;-79
2023/08/10 03:27:49;;;;;;;30.50;5.90;;;26.30;53.70;;;;;;5048245;28;20248;-79
2023/08/10 03:30:16;;;;;;;25.83;5.27;;;26.30;53.70;;;;;;5047782;28;20707;-78
2023/08/10 03:32:43;;;;;;;26.90;5.30;;;26.40;53.80;;;;;;5048600;28;20297;-78
2023/08/10 03:35:10;;;;;;;24.23;5.17;;;26.30;53.70;;;;;;5048011;28;20216;-79
2023/08/10 03:37:37;;;;;;;44.47;6.83;;;26.30;53.70;;;;;;5046548;28;20560;-78
2023/08/10 03:40:06;;;;;;;42.67;6.80;;;26.30;53.80;;;;;;5046849;28;20550;-77
2023/08/10 03:42:33;;;;;;;28.03;5.60;;;26.30;53.80;;;;;;5046352;28;20204;-78
2023/08/10 03:45:01;;;;;;;43.67;6.60;;;26.30;53.70;;;;;;5048842;28;20192;-77
2023/08/10 03:47:28;;;;;;;27.20;5.30;;;26.30;53.80;;;;;;5047261;28;20235;-79
2023/08/10 03:49:55;;;;;;;32.67;5.77;;;26.30;53.80;;;;;;5048655;28;20301;-77
2023/08/10 03:52:23;;;;;;;32.47;5.83;;;26.30;53.80;;;;;;5048377;28;20235;-77
2023/08/10 03:54:50;;;;;;;29.10;5.67;;;26.30;54.40;;;;;;5046840;28;20200;-78
2023/08/10 03:57:17;;;;;;;32.70;5.90;;;26.30;53.80;;;;;;5046616;28;20652;-79
2023/08/10 03:59:44;;;;;;;29.03;5.50;;;26.30;53.80;;;;;;5048595;28;20208;-80
2023/08/10 04:02:12;;;;;;;31.37;5.80;;;26.20;53.80;;;;;;5048322;28;20232;-81
2023/08/10 04:04:40;;;;;;;29.67;5.63;;;26.30;53.80;;;;;;5048170;28;20204;-79
2023/08/10 04:07:07;;;;;;;33.03;6.27;;;26.20;53.70;;;;;;5046857;28;20222;-78
2023/08/10 04:09:34;;;;;;;43.43;6.87;;;26.20;54.30;;;;;;5044526;28;20819;-78
2023/08/10 04:12:01;;;;;;;32.43;5.80;;;26.20;53.70;;;;;;5045155;28;20285;-82
2023/08/10 04:14:28;;;;;;;39.97;6.53;;;26.20;53.70;;;;;;5047811;28;20310;-79
2023/08/10 04:16:55;;;;;;;28.63;5.90;;;26.20;53.70;;;;;;5047751;28;20216;-78
2023/08/10 04:19:23;;;;;;;26.57;5.60;;;26.30;53.80;;;;;;5046104;28;20302;-79
2023/08/10 04:21:50;;;;;;;52.53;7.60;;;26.20;53.70;;;;;;5047020;28;20219;-78
2023/08/10 04:24:17;;;;;;;31.13;5.83;;;26.30;53.80;;;;;;5047883;28;20283;-78
2023/08/10 04:26:45;;;;;;;25.73;5.13;;;26.20;53.70;;;;;;5047018;28;20210;-78
2023/08/10 04:29:12;;;;;;;29.23;5.53;;;26.20;53.70;;;;;;5046793;28;20219;-77
2023/08/10 04:31:40;;;;;;;32.17;5.77;;;26.20;53.70;;;;;;5046508;28;20308;-80
2023/08/10 04:34:07;;;;;;;33.87;5.87;;;26.30;53.80;;;;;;5047724;28;20204;-80
2023/08/10 04:36:36;;;;;;;27.63;5.37;;;26.30;54.40;;;;;;5046878;28;20235;-78
2023/08/10 04:39:03;;;;;;;59.37;8.10;;;26.20;53.70;;;;;;5044682;28;20208;-77
2023/08/10 04:41:30;;;;;;;32.57;5.93;;;26.20;53.70;;;;;;5047538;28;20334;-78
2023/08/10 04:43:57;;;;;;;30.77;5.57;;;26.20;53.70;;;;;;5045660;28;20286;-78
2023/08/10 04:46:24;;;;;;;37.40;6.17;;;26.20;54.30;;;;;;5046146;28;20200;-82
2023/08/10 04:48:51;;;;;;;29.37;5.90;;;26.20;53.80;;;;;;5047615;28;20314;-75
2023/08/10 04:51:18;;;;;;;32.80;5.73;;;26.20;53.70;;;;;;5046662;28;20246;-85
2023/08/10 04:53:46;;;;;;;29.80;5.47;;;26.20;53.70;;;;;;5046279;28;20251;-83
2023/08/10 04:56:13;;;;;;;34.77;6.13;;;26.20;53.70;;;;;;5047406;28;20603;-77
2023/08/10 04:58:40;;;;;;;36.30;6.13;;;26.20;53.70;;;;;;5047181;28;20881;-83
2023/08/10 05:01:09;;;;;;;30.60;5.90;;;26.20;53.70;;;;;;5046865;28;20287;-74
2023/08/10 05:03:36;;;;;;;31.13;6.17;;;26.20;53.80;;;;;;5044217;28;20215;-74
2023/08/10 05:06:03;;;;;;;36.93;6.37;;;26.20;53.70;;;;;;5045530;28;20203;-75
2023/08/10 05:08:30;;;;;;;28.40;5.53;;;26.20;53.70;;;;;;5046094;28;20220;-82
2023/08/10 05:10:59;;;;;;;27.70;5.33;;;26.20;53.70;;;;;;5047296;28;20315;-77
2023/08/10 05:13:26;;;;;;;31.43;5.67;;;26.20;53.80;;;;;;5046134;28;20211;-87
2023/08/10 05:15:53;;;;;;;23.70;5.53;;;26.10;53.60;;;;;;5044652;28;20232;-77
2023/08/10 05:18:23;;;;;;;54.40;7.83;;;26.20;53.80;;;;;;5044239;28;20282;-82
2023/08/10 05:20:50;;;;;;;53.03;7.57;;;26.10;53.70;;;;;;5042708;28;20287;-86
2023/08/10 05:23:17;;;;;;;30.80;6.03;;;26.20;53.80;;;;;;5045561;28;20258;-79
2023/08/10 05:25:44;;;;;;;40.57;6.43;;;26.10;53.70;;;;;;5046327;28;20211;-76
2023/08/10 05:28:12;;;;;;;46.17;7.07;;;26.10;53.70;;;;;;5046504;28;20294;-80
2023/08/10 05:30:39;;;;;;;38.37;6.47;;;26.20;53.80;;;;;;5047551;28;20268;-86
2023/08/10 05:33:06;;;;;;;27.50;5.63;;;26.10;53.80;;;;;;5051462;28;20192;-74
2023/08/10 05:35:33;;;;;;;29.60;5.57;;;26.10;53.80;;;;;;5051241;28;20215;-83
2023/08/10 05:38:00;;;;;;;36.00;6.23;;;26.10;53.80;;;;;;5051110;28;20199;-80
2023/08/10 05:40:28;;;;;;;29.50;5.90;;;26.10;53.80;;;;;;5050266;28;20199;-78
2023/08/10 05:42:54;;;;;;;35.20;5.93;;;26.10;53.80;;;;;;5050119;28;20259;-76
2023/08/10 05:45:23;;;;;;;31.47;5.70;;;26.10;53.80;;;;;;5051449;28;20295;-76
2023/08/10 05:47:51;;;;;;;25.00;5.23;;;26.10;53.80;;;;;;5051222;28;20286;-76
2023/08/10 05:50:19;;;;;;;22.40;4.83;;;26.10;53.80;;;;;;5051059;28;20274;-74
2023/08/10 05:52:46;;;;;;;32.53;5.70;;;26.10;53.80;;;;;;5048871;28;20219;-74
2023/08/10 05:55:14;;;;;;;29.67;5.33;;;26.10;53.80;;;;;;5050980;28;20227;-76
2023/08/10 05:57:41;;;;;;;33.80;6.13;;;26.10;53.80;;;;;;5049274;28;20200;-76
2023/08/10 06:00:12;;;;;;;25.13;5.20;;;26.10;53.80;;;;;;5047188;28;20426;-78
2023/08/10 06:02:41;;;;;;;37.47;6.07;;;26.10;53.80;;;;;;5049502;28;20235;-73
2023/08/10 06:05:08;;;;;;;20.70;4.73;;;26.10;53.80;;;;;;5050519;28;20890;-73
2023/08/10 06:07:36;;;;;;;27.13;5.37;;;26.10;53.90;;;;;;5051009;28;20192;-75
2023/08/10 06:10:04;;;;;;;36.07;6.30;;;26.10;53.80;;;;;;5049979;28;20754;-73
2023/08/10 06:12:31;;;;;;;32.97;5.90;;;26.10;53.80;;;;;;5050317;28;20888;-74
2023/08/10 06:14:59;;;;;;;25.93;5.23;;;26.00;53.80;;;;;;5050527;28;20946;-73
2023/08/10 06:17:26;;;;;;;34.67;6.20;;;26.10;53.90;;;;;;5048489;28;20204;-74
2023/08/10 06:19:57;;;;;;;27.97;5.43;;;26.00;53.90;;;;;;5050209;28;20732;-74
2023/08/10 06:22:24;;;;;;;38.23;6.47;;;26.10;53.90;;;;;;5050415;28;20192;-74
2023/08/10 06:24:51;;;;;;;42.47;6.30;;;26.10;53.90;;;;;;5050220;28;20215;-74
2023/08/10 06:27:18;;;;;;;35.70;6.13;;;26.10;53.90;;;;;;5050585;28;20310;-75
2023/08/10 06:29:45;;;;;;;41.77;7.00;;;26.10;54.50;;;;;;5050280;28;20199;-79
2023/08/10 06:32:12;;;;;;;32.27;5.90;;;26.10;53.90;;;;;;5049100;28;20223;-78
2023/08/10 06:34:38;;;;;;;33.83;6.20;;;26.10;54.00;;;;;;5049947;28;20282;-77
2023/08/10 06:37:07;;;;;;;26.07;5.30;;;26.10;54.00;;;;;;5049354;28;20253;-83
2023/08/10 06:39:34;;;;;;;44.73;7.17;;;26.10;53.90;;;;;;5049871;28;20625;-78
2023/08/10 06:42:02;;;;;;;33.03;5.93;;;26.10;54.00;;;;;;5049494;28;20196;-81
2023/08/10 06:44:29;;;;;;;25.53;5.23;;;26.10;54.00;;;;;;5049206;28;20624;-75
2023/08/10 06:46:56;;;;;;;26.13;5.40;;;26.10;54.00;;;;;;5048590;28;20565;-85
2023/08/10 06:49:23;;;;;;;28.30;5.60;;;26.10;54.00;;;;;;5049682;28;20208;-74
2023/08/10 06:51:51;;;;;;;60.37;7.93;;;26.10;54.00;;;;;;5047789;28;20323;-75
2023/08/10 06:54:20;;;;;;;23.70;5.07;;;26.10;54.00;;;;;;5048798;28;20302;-74
2023/08/10 06:56:47;;;;;;;29.57;5.33;;;26.10;54.00;;;;;;5048919;28;20207;-74
2023/08/10 06:59:14;;;;;;;39.33;6.47;;;26.10;54.00;;;;;;5047381;28;20283;-77
2023/08/10 07:01:41;;;;;;;23.57;5.13;;;26.10;54.00;;;;;;5048651;28;20235;-77
2023/08/10 07:04:08;;;;;;;39.30;6.50;;;26.10;54.00;;;;;;5047961;28;20653;-75
2023/08/10 07:06:35;;;;;;;27.23;5.50;;;26.20;54.10;;;;;;5049438;28;20288;-76
2023/08/10 07:09:03;;;;;;;33.20;6.13;;;26.10;54.00;;;;;;5047867;28;20291;-78
2023/08/10 07:11:32;;;;;;;29.60;5.67;;;26.10;54.00;;;;;;5047786;28;20312;-80
2023/08/10 07:13:59;;;;;;;45.23;7.17;;;26.20;54.10;;;;;;5047415;28;20792;-79
2023/08/10 07:16:26;;;;;;;36.17;6.63;;;26.20;54.10;;;;;;5047139;28;20669;-77
2023/08/10 07:18:53;;;;;;;35.50;5.90;;;26.20;54.10;;;;;;5044982;28;20239;-75
2023/08/10 07:21:22;;;;;;;38.90;6.20;;;26.20;54.10;;;;;;5049329;28;20283;-77
2023/08/10 07:23:49;;;;;;;70.20;9.10;;;26.20;54.10;;;;;;5044844;28;20204;-79
2023/08/10 07:26:16;;;;;;;29.90;5.73;;;26.20;54.10;;;;;;5048227;28;20292;-78
2023/08/10 07:28:45;;;;;;;30.40;5.80;;;26.30;54.20;;;;;;5049105;28;20227;-78
2023/08/10 07:31:12;;;;;;;35.10;6.30;;;26.20;54.20;;;;;;5047412;28;20236;-75
2023/08/10 07:33:39;;;;;;;30.37;5.90;;;26.30;54.90;;;;;;5047825;28;20196;-85
2023/08/10 07:36:07;;;;;;;30.93;5.87;;;26.30;54.30;;;;;;5048180;28;20312;-78
2023/08/10 07:38:34;;;;;;;26.57;5.43;;;26.30;54.30;;;;;;5047333;28;20232;-83
2023/08/10 07:41:01;;;;;;;33.47;6.10;;;26.40;54.40;;;;;;5047188;28;20204;-80
2023/08/10 07:43:28;;;;;;;26.83;5.40;;;26.40;54.50;;;;;;5040721;28;20208;-77
2023/08/10 07:45:56;;;;;;;37.23;6.60;;;26.40;54.50;;;;;;5041602;28;20210;-76
2023/08/10 07:48:23;;;;;;;37.57;6.40;;;26.40;55.00;;;;;;5044116;28;20196;-71
2023/08/10 07:50:52;;;;;;;36.17;6.20;;;26.40;55.10;;;;;;5043929;28;20239;-70
2023/08/10 07:53:19;;;;;;;26.57;5.47;;;26.40;54.50;;;;;;5043126;28;20786;-75
2023/08/10 07:55:46;;;;;;;61.40;8.70;;;26.50;54.50;;;;;;5046481;28;20315;-71
2023/08/10 07:58:14;;;;;;;48.20;7.67;;;26.50;54.50;;;;;;5045190;28;20306;-71
2023/08/10 08:00:42;;;;;;;39.60;6.70;;;26.50;54.40;;;;;;5045363;28;20900;-70
2023/08/10 08:03:11;;;;;;;30.13;6.00;;;26.60;54.50;;;;;;5039471;28;20299;-71
2023/08/10 08:05:38;;;;;;;33.97;6.27;;;26.60;54.50;;;;;;5048055;28;20196;-78
2023/08/10 08:08:06;;;;;;;31.93;6.70;;;26.60;54.40;;;;;;5047510;28;20254;-75
2023/08/10 08:10:33;;;;;;;28.50;5.97;;;26.60;55.00;;;;;;5047898;28;20201;-78
2023/08/10 08:13:02;;;;;;;25.77;6.13;;;26.60;54.30;;;;;;5043354;28;20331;-72
2023/08/10 08:15:29;;;;;;;32.63;6.27;;;26.60;54.30;;;;;;5046039;28;20279;-68
2023/08/10 08:18:37;;;;;;;28.03;6.10;;;26.60;54.30;;;;;;5048156;28;20288;-69
2023/08/10 08:21:06;;;;;;;34.33;6.43;;;26.70;54.30;;;;;;5047724;28;20203;-68
2023/08/10 08:23:33;;;;;;;42.93;7.30;;;26.70;54.30;;;;;;5048129;28;20424;-69
2023/08/10 08:26:00;;;;;;;29.63;6.33;;;26.70;54.20;;;;;;5044493;28;20206;-73
2023/08/10 08:28:27;;;;;;;28.40;6.70;;;26.70;54.10;;;;;;5047805;28;20279;-70
2023/08/10 08:30:54;;;;;;;33.80;6.60;;;26.70;54.10;;;;;;5047082;28;20201;-72
2023/08/10 08:33:21;;;;;;;25.90;6.20;;;26.70;54.00;;;;;;5048187;28;20327;-73
2023/08/10 08:35:48;;;;;;;22.27;5.83;;;26.70;54.00;;;;;;5045621;28;20228;-83
2023/08/10 08:38:18;;;;;;;28.93;5.93;;;26.80;54.10;;;;;;5047591;28;20203;-78
2023/08/10 08:40:45;;;;;;;22.57;5.30;;;26.80;54.10;;;;;;5028422;28;20197;-80
2023/08/10 08:43:13;;;;;;;33.77;6.40;;;26.80;54.10;;;;;;5040110;28;20278;-80
2023/08/10 08:45:40;;;;;;;25.17;6.17;;;26.80;54.10;;;;;;5047965;28;20280;-79
2023/08/10 08:48:07;;;;;;;24.87;5.33;;;26.80;54.00;;;;;;5047816;28;20295;-78
2023/08/10 08:50:40;;;;;;;24.20;5.53;;;26.80;54.00;;;;;;5046672;28;20203;-79
2023/08/10 08:53:09;;;;;;;26.03;5.83;;;26.80;53.90;;;;;;5047294;28;20274;-73
2023/08/10 08:55:38;;;;;;;28.67;6.23;;;26.90;54.60;;;;;;5046567;28;20200;-85
2023/08/10 08:58:05;;;;;;;34.37;6.53;;;26.80;53.90;;;;;;5047411;28;20208;-81
2023/08/10 09:00:33;;;;;;;26.43;5.97;;;26.90;53.90;;;;;;5047719;28;20243;-77
2023/08/10 09:03:00;;;;;;;29.60;6.33;;;26.90;53.90;;;;;;5047742;28;20235;-80
2023/08/10 09:05:29;;;;;;;23.77;5.43;;;26.90;53.90;;;;;;5047505;28;20204;-82
2023/08/10 09:07:56;;;;;;;28.43;5.90;;;26.90;53.80;;;;;;5047370;28;20204;-82
2023/08/10 09:10:23;;;;;;;31.77;6.17;;;26.90;53.80;;;;;;5044026;28;20279;-77
2023/08/10 09:12:51;;;;;;;26.57;5.97;;;27.00;53.90;;;;;;5047577;28;20224;-74
2023/08/10 09:15:19;;;;;;;29.40;6.00;;;27.00;53.80;;;;;;5047407;28;20638;-81
2023/08/10 09:17:48;;;;;;;23.63;5.60;;;27.00;53.80;;;;;;5047094;28;20224;-80
2023/08/10 09:20:20;;;;;;;26.07;5.93;;;27.00;53.80;;;;;;5045675;28;20208;-78
2023/08/10 09:22:48;;;;;;;25.37;5.97;;;27.00;53.80;;;;;;5047241;28;20706;-78
2023/08/10 09:25:15;;;;;;;26.63;5.80;;;27.10;53.80;;;;;;5046941;28;20681;-77
2023/08/10 09:27:42;;;;;;;25.90;5.60;;;27.10;53.80;;;;;;5047186;28;20208;-75
2023/08/10 09:30:11;;;;;;;23.63;5.37;;;27.10;53.80;;;;;;5047207;28;20232;-74
2023/08/10 09:32:40;;;;;;;34.00;6.33;;;27.10;53.80;;;;;;5047231;28;20232;-75
2023/08/10 09:35:12;;;;;;;26.23;5.87;;;27.20;53.90;;;;;;5045703;28;20255;-74
2023/08/10 09:37:39;;;;;;;23.20;5.67;;;27.20;53.80;;;;;;5046911;28;20373;-73
2023/08/10 09:40:10;;;;;;;25.67;5.80;;;27.20;53.80;;;;;;5047080;28;20295;-74
2023/08/10 09:42:38;;;;;;;39.63;6.93;;;27.30;53.70;;;;;;5046803;28;20571;-73
2023/08/10 09:45:08;;;;;;;16.77;4.77;;;27.30;53.70;;;;;;5047426;28;20236;-73
2023/08/10 09:47:37;;;;;;;45.57;7.37;;;27.30;53.70;;;;;;5044395;28;20287;-77
2023/08/10 09:50:07;;;;;;;37.73;6.67;;;27.40;53.70;;;;;;5046669;28;20295;-73
2023/08/10 09:52:36;;;;;;;26.03;5.57;;;27.40;53.70;;;;;;5046974;28;20258;-73
2023/08/10 09:55:04;;;;;;;24.00;5.47;;;27.40;53.70;;;;;;5047089;28;20254;-74
2023/08/10 09:57:32;;;;;;;29.20;5.83;;;27.50;53.60;;;;;;5046659;28;20980;-75
2023/08/10 09:59:59;;;;;;;26.03;5.63;;;27.50;53.70;;;;;;5046631;28;20279;-74
2023/08/10 10:02:27;;;;;;;45.43;7.00;;;27.50;53.50;;;;;;5043205;28;20661;-73
2023/08/10 10:04:55;;;;;;;28.40;5.67;;;27.60;53.60;;;;;;5046961;28;20290;-74
2023/08/10 10:07:25;;;;;;;26.60;5.50;;;27.70;53.60;;;;;;5045413;28;20300;-77
2023/08/10 10:09:52;;;;;;;24.67;5.50;;;27.70;53.60;;;;;;5046269;28;20216;-77
2023/08/10 10:12:19;;;;;;;29.53;5.83;;;27.70;53.60;;;;;;5047045;28;20267;-81
2023/08/10 10:14:48;;;;;;;25.23;5.40;;;27.80;53.60;;;;;;5047086;28;20715;-83
2023/08/10 10:17:16;;;;;;;22.33;5.03;;;27.80;53.50;;;;;;5049184;28;20220;-80
2023/08/10 10:19:44;;;;;;;26.07;5.37;;;27.80;53.50;;;;;;5050513;28;20484;-82
2023/08/10 10:22:13;;;;;;;26.43;5.57;;;27.90;53.50;;;;;;5048879;28;20211;-76
2023/08/10 10:24:42;;;;;;;44.70;7.33;;;27.90;54.00;;;;;;5048033;28;20283;-78
2023/08/10 10:27:11;;;;;;;22.97;5.13;;;27.90;53.30;;;;;;5030542;28;20200;-80
2023/08/10 10:29:40;;;;;;;32.53;6.50;;;28.00;53.30;;;;;;5046483;28;20441;-77
2023/08/10 10:32:14;;;;;;;24.40;5.47;;;28.10;53.10;;;;;;5041073;28;20200;-84
2023/08/10 10:34:42;;;;;;;30.47;5.90;;;28.10;53.30;;;;;;5046603;28;20227;-81
2023/08/10 10:37:13;;;;;;;25.63;5.43;;;28.20;53.30;;;;;;5050123;28;20192;-75
2023/08/10 10:40:42;;;;;;;24.20;5.70;;;28.30;52.70;;;;;;5060534;27;20681;-73
2023/08/10 10:43:11;;;;;;;24.63;5.70;;;28.30;53.60;;;;;;5045180;28;20226;-78
2023/08/10 10:45:39;;;;;;;28.30;5.97;;;28.40;52.90;;;;;;5045181;28;20204;-79
2023/08/10 10:48:06;;;;;;;21.17;5.63;;;28.50;52.90;;;;;;5043153;28;20280;-75
2023/08/10 10:50:34;;;;;;;33.10;6.43;;;28.50;52.90;;;;;;5037847;28;20208;-79
2023/08/10 10:53:03;;;;;;;22.50;5.43;;;28.60;52.90;;;;;;5045048;28;20200;-79
2023/08/10 10:55:40;;;;;;;26.50;5.80;;;28.60;52.90;;;;;;5044860;28;20290;-71
2023/08/10 10:58:10;;;;;;;29.47;5.90;;;28.60;52.90;;;;;;5044968;28;20180;-71
2023/08/10 11:00:37;;;;;;;26.07;5.70;;;28.60;53.50;;;;;;5044708;28;20259;-72
2023/08/10 11:03:06;;;;;;;29.23;5.83;;;28.60;52.90;;;;;;5044668;28;20540;-75
2023/08/10 11:05:33;;;;;;;30.07;6.10;;;28.60;52.90;;;;;;5044920;28;20200;-74
2023/08/10 11:08:03;;;;;;;25.67;5.60;;;28.70;53.00;;;;;;5041131;28;21030;-72
2023/08/10 11:10:32;;;;;;;29.87;5.73;;;28.70;52.90;;;;;;5044437;28;20309;-72
2023/08/10 11:13:00;;;;;;;32.00;6.17;;;28.70;52.80;;;;;;5044928;28;20311;-72
2023/08/10 11:16:45;;;;;;;24.53;5.20;;;28.70;52.40;;;;;;5069206;27;20712;-72
2023/08/10 11:19:13;;;;;;;22.13;5.37;;;28.70;52.80;;;;;;5065544;28;20241;-72
2023/08/10 11:21:43;;;;;;;21.90;5.10;;;28.70;52.90;;;;;;5064886;28;20207;-71
2023/08/10 11:24:10;;;;;;;39.83;6.93;;;28.80;53.00;;;;;;5063522;28;20294;-74
2023/08/10 11:26:37;;;;;;;43.63;7.00;;;28.80;53.00;;;;;;5071810;28;20196;-71
2023/08/10 11:29:05;;;;;;;22.70;5.43;;;28.80;53.00;;;;;;5083087;28;20261;-73
2023/08/10 11:31:38;;;;;;;20.67;5.30;;;28.80;53.00;;;;;;5084569;28;20285;-71
2023/08/10 11:34:20;;;;;;;24.30;4.97;;;28.80;53.00;;;;;;5084898;28;20227;-71
2023/08/10 11:36:47;;;;;;;36.30;6.50;;;28.80;53.00;;;;;;5081116;28;21003;-77
2023/08/10 11:39:15;;;;;;;25.47;5.60;;;28.80;53.00;;;;;;5046903;28;20283;-72
2023/08/10 11:41:42;;;;;;;47.80;7.60;;;28.80;53.00;;;;;;5050923;28;20647;-86
2023/08/10 11:44:09;;;;;;;27.00;6.07;;;28.80;53.10;;;;;;5079665;28;20679;-71
2023/08/10 11:46:36;;;;;;;24.03;5.30;;;28.80;53.10;;;;;;5084425;28;20202;-71
2023/08/10 11:49:03;;;;;;;24.53;5.33;;;28.80;53.10;;;;;;5050087;28;20206;-74
2023/08/10 11:51:35;;;;;;;28.17;5.63;;;28.80;53.10;;;;;;5046822;28;20204;-76
2023/08/10 11:54:09;;;;;;;28.03;5.77;;;28.80;53.10;;;;;;5056307;28;20202;-72
2023/08/10 11:56:44;;;;;;;55.93;8.03;;;28.80;53.10;;;;;;5060342;28;20309;-71
2023/08/10 11:59:14;;;;;;;25.37;5.73;;;28.80;53.10;;;;;;5044243;28;20196;-71
2023/08/10 12:01:48;;;;;;;17.03;4.60;;;28.80;53.10;;;;;;5044737;28;20204;-71
2023/08/10 12:04:15;;;;;;;37.90;6.60;;;28.90;53.10;;;;;;5045809;28;20224;-71
2023/08/10 12:06:43;;;;;;;23.63;5.27;;;28.90;53.10;;;;;;5048750;28;20207;-70
2023/08/10 12:09:12;;;;;;;28.33;5.50;;;28.90;53.10;;;;;;5063866;28;20298;-72
2023/08/10 12:11:40;;;;;;;32.23;6.23;;;28.90;53.20;;;;;;5063368;28;20538;-74
2023/08/10 12:14:08;;;;;;;26.47;5.23;;;28.90;53.10;;;;;;5059711;28;20199;-73
2023/08/10 12:16:35;;;;;;;27.97;5.50;;;28.90;53.10;;;;;;5044971;28;20232;-71
2023/08/10 12:19:02;;;;;;;25.53;5.40;;;28.90;53.10;;;;;;5062362;28;20199;-82
2023/08/10 12:21:30;;;;;;;28.40;5.70;;;28.90;53.10;;;;;;5063758;28;20211;-74
2023/08/10 12:23:58;;;;;;;23.17;5.00;;;28.90;53.10;;;;;;5046284;28;20200;-71
2023/08/10 12:26:25;;;;;;;22.87;5.30;;;29.00;53.20;;;;;;5039048;28;20287;-72
2023/08/10 12:28:52;;;;;;;22.27;5.37;;;29.00;53.20;;;;;;5046707;28;20868;-72
2023/08/10 12:31:20;;;;;;;30.53;5.93;;;29.00;53.20;;;;;;5050111;28;20203;-72
2023/08/10 12:33:46;;;;;;;25.70;5.63;;;29.00;53.20;;;;;;5044105;28;20219;-72
2023/08/10 12:36:13;;;;;;;29.67;5.93;;;29.00;53.20;;;;;;5058715;28;20235;-71
2023/08/10 12:38:40;;;;;;;22.90;5.03;;;29.00;53.20;;;;;;5038570;28;20295;-70
2023/08/10 12:41:08;;;;;;;28.23;6.17;;;29.10;53.30;;;;;;5029944;28;20295;-74